sensor_id;sensor_type;location;lat;lon;timestamp;temperature;humidity
23100;DHT22;53791;50.696;4.396;2023-07-31T00:00:12;17.30;99.90
23100;DHT22;53791;50.696;4.396;2023-07-31T00:02:41;17.20;99.90
23100;DHT22;53791;50.696;4.396;2023-07-31T00:05:09;17.20;99.90
23100;DHT22;53791;50.696;4.396;2023-07-31T00:07:36;17.30;99.90
23100;DHT22;53791;50.696;4.396;2023-07-31T00:10:04;17.30;99.90
23100;DHT22;53791;50.696;4.396;2023-07-31T00:12:31;17.30;99.90
23100;DHT22;53791;50.696;4.396;2023-07-31T00:14:59;17.30;99.90
23100;DHT22;53791;50.696;4.396;2023-07-31T00:17:27;17.40;99.90
23100;DHT22;53791;50.696;4.396;2023-07-31T00:19:57;17.40;99.90
23100;DHT22;53791;50.696;4.396;2023-07-31T00:22:24;17.50;99.90
23100;DHT22;53791;50.696;4.396;2023-07-31T00:24:52;17.30;99.90
23100;DHT22;53791;50.696;4.396;2023-07-31T00:27:19;17.30;99.90
23100;DHT22;53791;50.696;4.396;2023-07-31T00:29:47;17.30;99.90
23100;DHT22;53791;50.696;4.396;2023-07-31T00:32:15;17.40;99.90
23100;DHT22;53791;50.696;4.396;2023-07-31T00:34:42;17.40;99.90
23100;DHT22;53791;50.696;4.396;2023-07-31T00:37:10;17.40;99.90
23100;DHT22;53791;50.696;4.396;2023-07-31T00:39:37;17.40;99.90
23100;DHT22;53791;50.696;4.396;2023-07-31T00:42:05;17.50;99.90
23100;DHT22;53791;50.696;4.396;2023-07-31T00:44:33;17.50;99.90
23100;DHT22;53791;50.696;4.396;2023-07-31T00:47:00;17.30;99.90
23100;DHT22;53791;50.696;4.396;2023-07-31T00:49:28;17.40;99.90
23100;DHT22;53791;50.696;4.396;2023-07-31T00:51:56;17.40;99.90
23100;DHT22;53791;50.696;4.396;2023-07-31T00:54:24;17.40;99.90
23100;DHT22;53791;50.696;4.396;2023-07-31T00:56:53;17.50;99.90
23100;DHT22;53791;50.696;4.396;2023-07-31T00:59:21;17.50;99.90
23100;DHT22;53791;50.696;4.396;2023-07-31T01:01:50;17.50;99.90
23100;DHT22;53791;50.696;4.396;2023-07-31T01:04:24;17.50;99.90
23100;DHT22;53791;50.696;4.396;2023-07-31T01:07:14;17.50;99.90
23100;DHT22;53791;50.696;4.396;2023-07-31T01:09:45;17.50;99.90
23100;DHT22;53791;50.696;4.396;2023-07-31T01:12:16;17.40;99.90
23100;DHT22;53791;50.696;4.396;2023-07-31T01:15:04;17.30;99.90
23100;DHT22;53791;50.696;4.396;2023-07-31T01:17:54;17.30;99.90
23100;DHT22;53791;50.696;4.396;2023-07-31T01:20:23;17.30;99.90
23100;DHT22;53791;50.696;4.396;2023-07-31T01:23:22;17.30;99.90
23100;DHT22;53791;50.696;4.396;2023-07-31T01:28:56;17.30;99.90
23100;DHT22;53791;50.696;4.396;2023-07-31T01:31:25;17.40;99.90
23100;DHT22;53791;50.696;4.396;2023-07-31T01:33:56;17.40;99.90
23100;DHT22;53791;50.696;4.396;2023-07-31T01:36:24;17.40;99.90
23100;DHT22;53791;50.696;4.396;2023-07-31T01:38:52;17.40;99.90
23100;DHT22;53791;50.696;4.396;2023-07-31T01:41:22;17.50;99.90
23100;DHT22;53791;50.696;4.396;2023-07-31T01:43:50;17.40;99.90
23100;DHT22;53791;50.696;4.396;2023-07-31T01:46:18;17.40;99.90
23100;DHT22;53791;50.696;4.396;2023-07-31T01:48:54;17.50;99.90
23100;DHT22;53791;50.696;4.396;2023-07-31T01:51:25;17.50;99.90
23100;DHT22;53791;50.696;4.396;2023-07-31T01:53:52;17.50;99.90
23100;DHT22;53791;50.696;4.396;2023-07-31T01:56:20;17.50;99.90
23100;DHT22;53791;50.696;4.396;2023-07-31T01:58:47;17.50;99.90
23100;DHT22;53791;50.696;4.396;2023-07-31T02:01:15;17.60;99.90
23100;DHT22;53791;50.696;4.396;2023-07-31T02:03:42;17.60;99.90
23100;DHT22;53791;50.696;4.396;2023-07-31T02:06:11;17.60;99.90
23100;DHT22;53791;50.696;4.396;2023-07-31T02:08:40;17.70;99.90
23100;DHT22;53791;50.696;4.396;2023-07-31T02:11:07;17.70;99.90
23100;DHT22;53791;50.696;4.396;2023-07-31T02:13:35;17.70;99.90
23100;DHT22;53791;50.696;4.396;2023-07-31T02:16:15;17.60;99.90
23100;DHT22;53791;50.696;4.396;2023-07-31T02:18:42;17.60;99.90
23100;DHT22;53791;50.696;4.396;2023-07-31T02:21:10;17.70;99.90
23100;DHT22;53791;50.696;4.396;2023-07-31T02:23:37;17.70;99.90
23100;DHT22;53791;50.696;4.396;2023-07-31T02:26:05;17.70;99.90
23100;DHT22;53791;50.696;4.396;2023-07-31T02:28:33;17.70;99.90
23100;DHT22;53791;50.696;4.396;2023-07-31T02:31:00;17.70;99.90
23100;DHT22;53791;50.696;4.396;2023-07-31T02:33:28;17.70;99.90
23100;DHT22;53791;50.696;4.396;2023-07-31T02:35:55;17.70;99.90
23100;DHT22;53791;50.696;4.396;2023-07-31T02:38:23;17.70;99.90
23100;DHT22;53791;50.696;4.396;2023-07-31T02:40:50;17.80;99.90
23100;DHT22;53791;50.696;4.396;2023-07-31T02:43:18;17.80;99.90
23100;DHT22;53791;50.696;4.396;2023-07-31T02:45:45;17.80;99.90
23100;DHT22;53791;50.696;4.396;2023-07-31T02:48:13;17.80;99.90
23100;DHT22;53791;50.696;4.396;2023-07-31T02:50:40;17.80;99.90
23100;DHT22;53791;50.696;4.396;2023-07-31T02:53:08;17.80;99.90
23100;DHT22;53791;50.696;4.396;2023-07-31T02:55:35;17.80;99.90
23100;DHT22;53791;50.696;4.396;2023-07-31T02:58:03;17.80;99.90
23100;DHT22;53791;50.696;4.396;2023-07-31T03:00:30;17.80;99.90
23100;DHT22;53791;50.696;4.396;2023-07-31T03:02:58;17.80;99.90
23100;DHT22;53791;50.696;4.396;2023-07-31T03:05:25;17.70;99.90
23100;DHT22;53791;50.696;4.396;2023-07-31T03:07:53;17.80;99.90
23100;DHT22;53791;50.696;4.396;2023-07-31T03:10:20;17.80;99.90
23100;DHT22;53791;50.696;4.396;2023-07-31T03:12:48;17.80;99.90
23100;DHT22;53791;50.696;4.396;2023-07-31T03:15:15;17.80;99.90
23100;DHT22;53791;50.696;4.396;2023-07-31T03:17:43;17.80;99.90
23100;DHT22;53791;50.696;4.396;2023-07-31T03:20:11;17.80;99.90
23100;DHT22;53791;50.696;4.396;2023-07-31T03:22:38;17.80;99.90
23100;DHT22;53791;50.696;4.396;2023-07-31T03:25:06;17.80;99.90
23100;DHT22;53791;50.696;4.396;2023-07-31T03:27:35;17.80;99.90
23100;DHT22;53791;50.696;4.396;2023-07-31T03:30:03;17.80;99.90
23100;DHT22;53791;50.696;4.396;2023-07-31T03:32:31;17.80;99.90
23100;DHT22;53791;50.696;4.396;2023-07-31T03:34:59;17.80;99.90
23100;DHT22;53791;50.696;4.396;2023-07-31T03:37:26;17.80;99.90
23100;DHT22;53791;50.696;4.396;2023-07-31T03:39:54;17.80;99.90
23100;DHT22;53791;50.696;4.396;2023-07-31T03:42:21;17.80;99.90
23100;DHT22;53791;50.696;4.396;2023-07-31T03:44:49;17.80;99.90
23100;DHT22;53791;50.696;4.396;2023-07-31T03:47:16;17.80;99.90
23100;DHT22;53791;50.696;4.396;2023-07-31T03:49:44;17.90;99.90
23100;DHT22;53791;50.696;4.396;2023-07-31T03:52:11;17.80;99.90
23100;DHT22;53791;50.696;4.396;2023-07-31T03:54:39;17.80;99.90
23100;DHT22;53791;50.696;4.396;2023-07-31T03:57:06;17.80;99.90
23100;DHT22;53791;50.696;4.396;2023-07-31T03:59:34;17.80;99.90
23100;DHT22;53791;50.696;4.396;2023-07-31T04:02:01;17.80;99.90
23100;DHT22;53791;50.696;4.396;2023-07-31T04:04:29;17.70;99.90
23100;DHT22;53791;50.696;4.396;2023-07-31T04:06:56;17.70;99.90
23100;DHT22;53791;50.696;4.396;2023-07-31T04:09:24;17.80;99.90
23100;DHT22;53791;50.696;4.396;2023-07-31T04:11:51;17.70;99.90
23100;DHT22;53791;50.696;4.396;2023-07-31T04:14:19;17.70;99.90
23100;DHT22;53791;50.696;4.396;2023-07-31T04:16:47;17.80;99.90
23100;DHT22;53791;50.696;4.396;2023-07-31T04:19:14;17.70;99.90
23100;DHT22;53791;50.696;4.396;2023-07-31T04:21:43;17.80;99.90
23100;DHT22;53791;50.696;4.396;2023-07-31T04:24:10;17.70;99.90
23100;DHT22;53791;50.696;4.396;2023-07-31T04:26:38;17.80;99.90
23100;DHT22;53791;50.696;4.396;2023-07-31T04:29:05;17.80;99.90
23100;DHT22;53791;50.696;4.396;2023-07-31T04:31:34;17.90;99.90
23100;DHT22;53791;50.696;4.396;2023-07-31T04:34:01;17.80;99.90
23100;DHT22;53791;50.696;4.396;2023-07-31T04:36:29;17.80;99.90
23100;DHT22;53791;50.696;4.396;2023-07-31T04:38:56;17.80;99.90
23100;DHT22;53791;50.696;4.396;2023-07-31T04:41:24;17.80;99.90
23100;DHT22;53791;50.696;4.396;2023-07-31T04:43:51;17.70;99.90
23100;DHT22;53791;50.696;4.396;2023-07-31T04:46:19;17.80;99.90
23100;DHT22;53791;50.696;4.396;2023-07-31T04:48:46;17.80;99.90
23100;DHT22;53791;50.696;4.396;2023-07-31T04:51:14;17.80;99.90
23100;DHT22;53791;50.696;4.396;2023-07-31T04:53:43;17.70;99.90
23100;DHT22;53791;50.696;4.396;2023-07-31T04:56:10;17.70;99.90
23100;DHT22;53791;50.696;4.396;2023-07-31T04:58:38;17.60;99.90
23100;DHT22;53791;50.696;4.396;2023-07-31T05:01:05;17.60;99.90
23100;DHT22;53791;50.696;4.396;2023-07-31T05:03:33;17.60;99.90
23100;DHT22;53791;50.696;4.396;2023-07-31T05:06:01;17.60;99.90
23100;DHT22;53791;50.696;4.396;2023-07-31T05:08:30;17.50;99.90
23100;DHT22;53791;50.696;4.396;2023-07-31T05:10:57;17.50;99.90
23100;DHT22;53791;50.696;4.396;2023-07-31T05:13:30;17.50;99.90
23100;DHT22;53791;50.696;4.396;2023-07-31T05:15:54;17.50;99.90
23100;DHT22;53791;50.696;4.396;2023-07-31T05:18:33;17.40;99.90
23100;DHT22;53791;50.696;4.396;2023-07-31T05:21:09;17.40;99.90
23100;DHT22;53791;50.696;4.396;2023-07-31T05:23:35;17.40;99.90
23100;DHT22;53791;50.696;4.396;2023-07-31T05:26:06;17.40;99.90
23100;DHT22;53791;50.696;4.396;2023-07-31T05:28:46;17.30;99.90
23100;DHT22;53791;50.696;4.396;2023-07-31T05:31:15;17.30;99.90
23100;DHT22;53791;50.696;4.396;2023-07-31T05:33:51;17.20;99.90
23100;DHT22;53791;50.696;4.396;2023-07-31T05:36:18;17.30;99.90
23100;DHT22;53791;50.696;4.396;2023-07-31T05:38:51;17.30;99.90
23100;DHT22;53791;50.696;4.396;2023-07-31T05:41:20;17.30;99.90
23100;DHT22;53791;50.696;4.396;2023-07-31T05:43:48;17.30;99.90
23100;DHT22;53791;50.696;4.396;2023-07-31T05:46:15;17.40;99.90
23100;DHT22;53791;50.696;4.396;2023-07-31T05:48:46;17.40;99.90
23100;DHT22;53791;50.696;4.396;2023-07-31T05:51:18;17.40;99.90
23100;DHT22;53791;50.696;4.396;2023-07-31T05:53:47;17.30;99.90
23100;DHT22;53791;50.696;4.396;2023-07-31T05:56:18;17.40;99.90
23100;DHT22;53791;50.696;4.396;2023-07-31T05:58:45;17.30;99.90
23100;DHT22;53791;50.696;4.396;2023-07-31T06:01:16;17.30;99.90
23100;DHT22;53791;50.696;4.396;2023-07-31T06:03:55;17.30;99.90
23100;DHT22;53791;50.696;4.396;2023-07-31T06:06:26;17.30;99.90
23100;DHT22;53791;50.696;4.396;2023-07-31T06:08:53;17.40;99.90
23100;DHT22;53791;50.696;4.396;2023-07-31T06:11:27;17.40;99.90
23100;DHT22;53791;50.696;4.396;2023-07-31T06:13:54;17.40;99.90
23100;DHT22;53791;50.696;4.396;2023-07-31T06:16:22;17.40;99.90
23100;DHT22;53791;50.696;4.396;2023-07-31T06:19:02;17.30;99.90
23100;DHT22;53791;50.696;4.396;2023-07-31T06:21:26;17.40;99.90
23100;DHT22;53791;50.696;4.396;2023-07-31T06:23:55;17.40;99.90
23100;DHT22;53791;50.696;4.396;2023-07-31T06:26:22;17.40;99.90
23100;DHT22;53791;50.696;4.396;2023-07-31T06:28:52;17.30;99.90
23100;DHT22;53791;50.696;4.396;2023-07-31T06:31:19;17.30;99.90
23100;DHT22;53791;50.696;4.396;2023-07-31T06:33:51;17.50;99.90
23100;DHT22;53791;50.696;4.396;2023-07-31T06:36:19;17.50;99.90
23100;DHT22;53791;50.696;4.396;2023-07-31T06:38:46;17.40;99.90
23100;DHT22;53791;50.696;4.396;2023-07-31T06:41:14;17.50;99.90
23100;DHT22;53791;50.696;4.396;2023-07-31T06:43:41;17.50;99.90
23100;DHT22;53791;50.696;4.396;2023-07-31T06:46:09;17.50;99.90
23100;DHT22;53791;50.696;4.396;2023-07-31T06:48:37;17.40;99.90
23100;DHT22;53791;50.696;4.396;2023-07-31T06:51:09;17.40;99.90
23100;DHT22;53791;50.696;4.396;2023-07-31T06:53:33;17.50;99.90
23100;DHT22;53791;50.696;4.396;2023-07-31T06:56:01;17.50;99.90
23100;DHT22;53791;50.696;4.396;2023-07-31T06:58:28;17.60;99.90
23100;DHT22;53791;50.696;4.396;2023-07-31T07:00:56;17.60;99.90
23100;DHT22;53791;50.696;4.396;2023-07-31T07:03:24;17.60;99.90
23100;DHT22;53791;50.696;4.396;2023-07-31T07:05:51;17.70;99.90
23100;DHT22;53791;50.696;4.396;2023-07-31T07:08:19;17.80;99.90
23100;DHT22;53791;50.696;4.396;2023-07-31T07:10:46;17.70;99.90
23100;DHT22;53791;50.696;4.396;2023-07-31T07:13:14;17.80;99.90
23100;DHT22;53791;50.696;4.396;2023-07-31T07:15:42;17.80;99.90
23100;DHT22;53791;50.696;4.396;2023-07-31T07:18:09;17.80;99.90
23100;DHT22;53791;50.696;4.396;2023-07-31T07:20:37;17.70;99.90
23100;DHT22;53791;50.696;4.396;2023-07-31T07:23:04;17.70;99.90
23100;DHT22;53791;50.696;4.396;2023-07-31T07:25:32;17.70;99.90
23100;DHT22;53791;50.696;4.396;2023-07-31T07:27:59;17.70;99.90
23100;DHT22;53791;50.696;4.396;2023-07-31T07:30:28;17.70;99.90
23100;DHT22;53791;50.696;4.396;2023-07-31T07:32:55;17.70;99.90
23100;DHT22;53791;50.696;4.396;2023-07-31T07:35:23;17.80;99.90
23100;DHT22;53791;50.696;4.396;2023-07-31T07:37:50;17.80;99.90
23100;DHT22;53791;50.696;4.396;2023-07-31T07:40:18;17.70;99.90
23100;DHT22;53791;50.696;4.396;2023-07-31T07:42:45;17.60;99.90
23100;DHT22;53791;50.696;4.396;2023-07-31T07:45:13;17.60;99.90
23100;DHT22;53791;50.696;4.396;2023-07-31T07:47:47;17.70;99.90
23100;DHT22;53791;50.696;4.396;2023-07-31T07:50:14;17.80;99.90
23100;DHT22;53791;50.696;4.396;2023-07-31T07:52:42;17.80;99.90
23100;DHT22;53791;50.696;4.396;2023-07-31T07:55:09;17.80;99.90
23100;DHT22;53791;50.696;4.396;2023-07-31T07:57:37;17.80;99.90
23100;DHT22;53791;50.696;4.396;2023-07-31T08:00:06;17.90;99.90
23100;DHT22;53791;50.696;4.396;2023-07-31T08:02:33;17.90;99.90
23100;DHT22;53791;50.696;4.396;2023-07-31T08:05:01;17.90;99.90
23100;DHT22;53791;50.696;4.396;2023-07-31T08:07:28;17.90;99.90
23100;DHT22;53791;50.696;4.396;2023-07-31T08:09:56;17.90;99.90
23100;DHT22;53791;50.696;4.396;2023-07-31T08:12:24;17.90;99.90
23100;DHT22;53791;50.696;4.396;2023-07-31T08:14:52;17.80;99.90
23100;DHT22;53791;50.696;4.396;2023-07-31T08:17:19;17.90;99.90
23100;DHT22;53791;50.696;4.396;2023-07-31T08:19:47;17.90;99.90
23100;DHT22;53791;50.696;4.396;2023-07-31T08:22:14;17.90;99.90
23100;DHT22;53791;50.696;4.396;2023-07-31T08:24:42;17.90;99.90
23100;DHT22;53791;50.696;4.396;2023-07-31T08:27:09;17.80;99.90
23100;DHT22;53791;50.696;4.396;2023-07-31T08:29:37;17.80;99.90
23100;DHT22;53791;50.696;4.396;2023-07-31T08:32:06;17.80;99.90
23100;DHT22;53791;50.696;4.396;2023-07-31T08:34:33;17.80;99.90
23100;DHT22;53791;50.696;4.396;2023-07-31T08:37:01;17.80;99.90
23100;DHT22;53791;50.696;4.396;2023-07-31T08:39:28;17.80;99.90
23100;DHT22;53791;50.696;4.396;2023-07-31T08:41:59;17.90;99.90
23100;DHT22;53791;50.696;4.396;2023-07-31T08:44:27;17.80;99.90
23100;DHT22;53791;50.696;4.396;2023-07-31T08:46:55;17.80;99.90
23100;DHT22;53791;50.696;4.396;2023-07-31T08:49:23;17.80;99.90
23100;DHT22;53791;50.696;4.396;2023-07-31T08:51:50;17.80;99.90
23100;DHT22;53791;50.696;4.396;2023-07-31T08:54:20;17.70;99.90
23100;DHT22;53791;50.696;4.396;2023-07-31T08:56:48;17.80;99.90
23100;DHT22;53791;50.696;4.396;2023-07-31T08:59:18;17.80;99.90
23100;DHT22;53791;50.696;4.396;2023-07-31T09:01:49;17.80;99.90
23100;DHT22;53791;50.696;4.396;2023-07-31T09:04:19;17.80;99.90
23100;DHT22;53791;50.696;4.396;2023-07-31T09:06:47;17.90;99.90
23100;DHT22;53791;50.696;4.396;2023-07-31T09:09:15;17.90;99.90
23100;DHT22;53791;50.696;4.396;2023-07-31T09:11:43;17.90;99.90
23100;DHT22;53791;50.696;4.396;2023-07-31T09:14:11;17.90;99.90
23100;DHT22;53791;50.696;4.396;2023-07-31T09:16:53;17.90;99.90
23100;DHT22;53791;50.696;4.396;2023-07-31T09:19:35;17.90;99.90
23100;DHT22;53791;50.696;4.396;2023-07-31T09:22:06;18.00;99.90
23100;DHT22;53791;50.696;4.396;2023-07-31T09:24:34;18.00;99.90
23100;DHT22;53791;50.696;4.396;2023-07-31T09:27:05;18.10;99.90
23100;DHT22;53791;50.696;4.396;2023-07-31T09:29:31;18.10;99.90
23100;DHT22;53791;50.696;4.396;2023-07-31T09:32:00;18.10;99.90
23100;DHT22;53791;50.696;4.396;2023-07-31T09:34:38;18.20;99.90
23100;DHT22;53791;50.696;4.396;2023-07-31T09:37:06;18.20;99.90
23100;DHT22;53791;50.696;4.396;2023-07-31T09:39:47;18.30;99.90
23100;DHT22;53791;50.696;4.396;2023-07-31T09:42:23;18.40;99.90
23100;DHT22;53791;50.696;4.396;2023-07-31T09:44:43;18.40;99.90
23100;DHT22;53791;50.696;4.396;2023-07-31T09:47:23;18.40;99.90
23100;DHT22;53791;50.696;4.396;2023-07-31T09:49:51;18.50;99.90
23100;DHT22;53791;50.696;4.396;2023-07-31T09:52:25;18.50;99.90
23100;DHT22;53791;50.696;4.396;2023-07-31T09:54:50;18.50;99.90
23100;DHT22;53791;50.696;4.396;2023-07-31T09:57:20;18.40;99.90
23100;DHT22;53791;50.696;4.396;2023-07-31T09:59:49;18.40;99.90
23100;DHT22;53791;50.696;4.396;2023-07-31T10:02:20;18.40;99.90
23100;DHT22;53791;50.696;4.396;2023-07-31T10:04:50;18.40;99.90
23100;DHT22;53791;50.696;4.396;2023-07-31T10:07:18;18.40;99.90
23100;DHT22;53791;50.696;4.396;2023-07-31T10:09:47;18.50;99.90
23100;DHT22;53791;50.696;4.396;2023-07-31T10:12:16;18.50;99.90
23100;DHT22;53791;50.696;4.396;2023-07-31T10:14:45;18.50;99.90
23100;DHT22;53791;50.696;4.396;2023-07-31T10:17:14;18.70;99.90
23100;DHT22;53791;50.696;4.396;2023-07-31T10:19:44;18.70;99.90
23100;DHT22;53791;50.696;4.396;2023-07-31T10:22:14;18.70;99.90
23100;DHT22;53791;50.696;4.396;2023-07-31T10:24:43;18.70;99.90
23100;DHT22;53791;50.696;4.396;2023-07-31T10:27:12;18.80;99.90
23100;DHT22;53791;50.696;4.396;2023-07-31T10:29:41;18.90;99.90
23100;DHT22;53791;50.696;4.396;2023-07-31T10:32:10;18.90;99.90
23100;DHT22;53791;50.696;4.396;2023-07-31T10:34:39;18.90;99.90
23100;DHT22;53791;50.696;4.396;2023-07-31T10:40:05;19.10;99.90
23100;DHT22;53791;50.696;4.396;2023-07-31T10:42:38;19.20;99.90
23100;DHT22;53791;50.696;4.396;2023-07-31T10:45:10;19.20;99.90
23100;DHT22;53791;50.696;4.396;2023-07-31T10:47:45;19.20;99.90
23100;DHT22;53791;50.696;4.396;2023-07-31T10:50:19;19.30;99.90
23100;DHT22;53791;50.696;4.396;2023-07-31T10:52:52;19.30;99.90
23100;DHT22;53791;50.696;4.396;2023-07-31T10:55:28;19.40;99.90
23100;DHT22;53791;50.696;4.396;2023-07-31T10:58:07;19.50;99.90
23100;DHT22;53791;50.696;4.396;2023-07-31T11:00:37;19.60;99.90
23100;DHT22;53791;50.696;4.396;2023-07-31T11:03:10;19.50;99.90
23100;DHT22;53791;50.696;4.396;2023-07-31T11:05:51;19.60;99.90
23100;DHT22;53791;50.696;4.396;2023-07-31T11:08:27;19.60;99.90
23100;DHT22;53791;50.696;4.396;2023-07-31T11:11:06;19.60;99.90
23100;DHT22;53791;50.696;4.396;2023-07-31T11:13:41;19.60;99.90
23100;DHT22;53791;50.696;4.396;2023-07-31T11:16:13;19.60;99.90
23100;DHT22;53791;50.696;4.396;2023-07-31T11:18:42;19.60;99.90
23100;DHT22;53791;50.696;4.396;2023-07-31T11:21:13;19.70;99.90
23100;DHT22;53791;50.696;4.396;2023-07-31T11:23:46;19.70;99.90
23100;DHT22;53791;50.696;4.396;2023-07-31T11:26:11;19.70;99.90
23100;DHT22;53791;50.696;4.396;2023-07-31T11:28:39;19.80;99.90
23100;DHT22;53791;50.696;4.396;2023-07-31T11:31:09;19.80;99.90
23100;DHT22;53791;50.696;4.396;2023-07-31T11:33:37;19.80;99.90
23100;DHT22;53791;50.696;4.396;2023-07-31T11:36:05;19.80;99.90
23100;DHT22;53791;50.696;4.396;2023-07-31T11:38:33;19.80;99.90
23100;DHT22;53791;50.696;4.396;2023-07-31T11:41:02;19.80;99.90
23100;DHT22;53791;50.696;4.396;2023-07-31T11:43:33;19.80;99.90
23100;DHT22;53791;50.696;4.396;2023-07-31T11:46:03;19.80;99.90
23100;DHT22;53791;50.696;4.396;2023-07-31T11:48:34;19.90;99.90
23100;DHT22;53791;50.696;4.396;2023-07-31T11:51:08;19.90;99.90
23100;DHT22;53791;50.696;4.396;2023-07-31T11:53:43;19.80;99.90
23100;DHT22;53791;50.696;4.396;2023-07-31T11:56:13;19.80;99.90
23100;DHT22;53791;50.696;4.396;2023-07-31T11:58:41;19.80;99.90
23100;DHT22;53791;50.696;4.396;2023-07-31T12:01:10;19.90;99.90
23100;DHT22;53791;50.696;4.396;2023-07-31T12:03:38;20.00;99.90
23100;DHT22;53791;50.696;4.396;2023-07-31T12:06:08;20.00;99.90
23100;DHT22;53791;50.696;4.396;2023-07-31T12:08:36;20.00;99.90
23100;DHT22;53791;50.696;4.396;2023-07-31T12:11:05;20.10;99.90
23100;DHT22;53791;50.696;4.396;2023-07-31T12:13:33;20.10;99.90
23100;DHT22;53791;50.696;4.396;2023-07-31T12:16:03;20.20;99.90
23100;DHT22;53791;50.696;4.396;2023-07-31T12:18:38;20.30;99.90
23100;DHT22;53791;50.696;4.396;2023-07-31T12:21:08;20.30;99.90
23100;DHT22;53791;50.696;4.396;2023-07-31T12:23:38;20.30;99.90
23100;DHT22;53791;50.696;4.396;2023-07-31T12:26:12;20.30;99.90
23100;DHT22;53791;50.696;4.396;2023-07-31T12:28:45;20.30;99.90
23100;DHT22;53791;50.696;4.396;2023-07-31T12:31:14;20.30;99.90
23100;DHT22;53791;50.696;4.396;2023-07-31T12:33:44;20.20;99.90
23100;DHT22;53791;50.696;4.396;2023-07-31T12:36:14;20.30;99.90
23100;DHT22;53791;50.696;4.396;2023-07-31T12:38:42;20.20;99.90
23100;DHT22;53791;50.696;4.396;2023-07-31T12:41:09;20.20;99.90
23100;DHT22;53791;50.696;4.396;2023-07-31T12:43:39;20.20;99.90
23100;DHT22;53791;50.696;4.396;2023-07-31T12:46:06;20.10;99.90
23100;DHT22;53791;50.696;4.396;2023-07-31T12:48:38;20.10;99.90
23100;DHT22;53791;50.696;4.396;2023-07-31T12:51:06;20.10;99.90
23100;DHT22;53791;50.696;4.396;2023-07-31T12:53:34;20.10;99.90
23100;DHT22;53791;50.696;4.396;2023-07-31T12:56:02;20.20;99.90
23100;DHT22;53791;50.696;4.396;2023-07-31T12:58:29;20.20;99.90
23100;DHT22;53791;50.696;4.396;2023-07-31T13:00:57;20.20;99.90
23100;DHT22;53791;50.696;4.396;2023-07-31T13:03:25;20.30;99.90
23100;DHT22;53791;50.696;4.396;2023-07-31T13:05:52;20.30;99.90
23100;DHT22;53791;50.696;4.396;2023-07-31T13:08:20;20.30;99.90
23100;DHT22;53791;50.696;4.396;2023-07-31T13:10:47;20.30;99.90
23100;DHT22;53791;50.696;4.396;2023-07-31T13:13:15;20.20;99.90
23100;DHT22;53791;50.696;4.396;2023-07-31T13:15:44;20.10;99.90
23100;DHT22;53791;50.696;4.396;2023-07-31T13:18:12;20.10;99.90
23100;DHT22;53791;50.696;4.396;2023-07-31T13:20:39;20.00;99.90
23100;DHT22;53791;50.696;4.396;2023-07-31T13:23:07;19.80;99.90
23100;DHT22;53791;50.696;4.396;2023-07-31T13:25:34;19.90;99.90
23100;DHT22;53791;50.696;4.396;2023-07-31T13:28:02;19.70;99.90
23100;DHT22;53791;50.696;4.396;2023-07-31T13:30:30;19.70;99.90
23100;DHT22;53791;50.696;4.396;2023-07-31T13:32:57;19.70;99.90
23100;DHT22;53791;50.696;4.396;2023-07-31T13:35:25;19.60;99.90
23100;DHT22;53791;50.696;4.396;2023-07-31T13:37:52;19.60;99.90
23100;DHT22;53791;50.696;4.396;2023-07-31T13:40:20;19.60;99.90
23100;DHT22;53791;50.696;4.396;2023-07-31T13:42:49;19.50;99.90
23100;DHT22;53791;50.696;4.396;2023-07-31T13:45:20;19.40;99.90
23100;DHT22;53791;50.696;4.396;2023-07-31T13:47:48;19.40;99.90
23100;DHT22;53791;50.696;4.396;2023-07-31T13:50:16;19.30;99.90
23100;DHT22;53791;50.696;4.396;2023-07-31T13:52:45;19.40;99.90
23100;DHT22;53791;50.696;4.396;2023-07-31T13:55:17;19.30;99.90
23100;DHT22;53791;50.696;4.396;2023-07-31T13:57:44;19.30;99.90
23100;DHT22;53791;50.696;4.396;2023-07-31T14:00:13;19.10;99.90
23100;DHT22;53791;50.696;4.396;2023-07-31T14:02:46;19.10;99.90
23100;DHT22;53791;50.696;4.396;2023-07-31T14:05:13;19.10;99.90
23100;DHT22;53791;50.696;4.396;2023-07-31T14:07:41;19.20;99.90
23100;DHT22;53791;50.696;4.396;2023-07-31T14:10:09;19.20;99.90
23100;DHT22;53791;50.696;4.396;2023-07-31T14:12:40;19.20;99.90
23100;DHT22;53791;50.696;4.396;2023-07-31T14:15:07;19.10;99.90
23100;DHT22;53791;50.696;4.396;2023-07-31T14:17:35;19.10;99.90
23100;DHT22;53791;50.696;4.396;2023-07-31T14:20:03;19.10;99.90
23100;DHT22;53791;50.696;4.396;2023-07-31T14:22:31;19.00;99.90
23100;DHT22;53791;50.696;4.396;2023-07-31T14:25:04;19.20;99.90
23100;DHT22;53791;50.696;4.396;2023-07-31T14:27:37;19.10;99.90
23100;DHT22;53791;50.696;4.396;2023-07-31T14:30:05;19.20;99.90
23100;DHT22;53791;50.696;4.396;2023-07-31T14:32:33;19.20;99.90
23100;DHT22;53791;50.696;4.396;2023-07-31T14:35:01;19.20;99.90
23100;DHT22;53791;50.696;4.396;2023-07-31T14:37:39;19.20;99.90
23100;DHT22;53791;50.696;4.396;2023-07-31T14:40:08;19.20;99.90
23100;DHT22;53791;50.696;4.396;2023-07-31T14:42:36;19.20;99.90
23100;DHT22;53791;50.696;4.396;2023-07-31T14:45:04;19.20;99.90
23100;DHT22;53791;50.696;4.396;2023-07-31T14:47:32;19.30;99.90
23100;DHT22;53791;50.696;4.396;2023-07-31T14:50:02;19.30;99.90
23100;DHT22;53791;50.696;4.396;2023-07-31T14:52:29;19.20;99.90
23100;DHT22;53791;50.696;4.396;2023-07-31T14:54:57;19.30;99.90
23100;DHT22;53791;50.696;4.396;2023-07-31T14:57:25;19.30;99.90
23100;DHT22;53791;50.696;4.396;2023-07-31T14:59:52;19.30;99.90
23100;DHT22;53791;50.696;4.396;2023-07-31T15:02:22;19.20;99.90
23100;DHT22;53791;50.696;4.396;2023-07-31T15:04:58;19.10;99.90
23100;DHT22;53791;50.696;4.396;2023-07-31T15:07:27;19.10;99.90
23100;DHT22;53791;50.696;4.396;2023-07-31T15:09:57;19.10;99.90
23100;DHT22;53791;50.696;4.396;2023-07-31T15:12:26;19.10;99.90
23100;DHT22;53791;50.696;4.396;2023-07-31T15:14:58;19.10;99.90
23100;DHT22;53791;50.696;4.396;2023-07-31T15:17:26;19.00;99.90
23100;DHT22;53791;50.696;4.396;2023-07-31T15:20:12;19.00;99.90
23100;DHT22;53791;50.696;4.396;2023-07-31T15:22:37;19.00;99.90
23100;DHT22;53791;50.696;4.396;2023-07-31T15:25:06;19.00;99.90
23100;DHT22;53791;50.696;4.396;2023-07-31T15:27:33;18.90;99.90
23100;DHT22;53791;50.696;4.396;2023-07-31T15:30:05;18.90;99.90
23100;DHT22;53791;50.696;4.396;2023-07-31T15:32:31;18.80;99.90
23100;DHT22;53791;50.696;4.396;2023-07-31T15:34:59;18.80;99.90
23100;DHT22;53791;50.696;4.396;2023-07-31T15:37:29;18.80;99.90
23100;DHT22;53791;50.696;4.396;2023-07-31T15:40:00;18.80;99.90
23100;DHT22;53791;50.696;4.396;2023-07-31T15:42:30;18.70;99.90
23100;DHT22;53791;50.696;4.396;2023-07-31T15:44:59;18.70;99.90
23100;DHT22;53791;50.696;4.396;2023-07-31T15:47:29;18.70;99.90